Time;durP1;ratioP1;P1;durP2;ratioP2;P2;SDS_P1;SDS_P2;PMS_P1;PMS_P2;Temp;Humidity;BMP_temperature;BMP_pressure;BME280_temperature;BME280_humidity;BME280_pressure;Samples;Min_cycle;Max_cycle;Signal;HPM_P1;HPM_P2
2023/09/10 00:00:35;;;;;;;0.60;0.50;;;18.70;99.90;;;;;;5118840;27;20517;-74
2023/09/10 00:03:00;;;;;;;0.30;0.30;;;18.60;99.90;;;;;;5117212;28;20083;-74
2023/09/10 00:05:26;;;;;;;1.77;0.50;;;18.60;99.90;;;;;;5118142;28;20047;-75
2023/09/10 00:07:52;;;;;;;0.50;0.50;;;18.60;99.90;;;;;;5118022;28;20082;-74
2023/09/10 00:10:18;;;;;;;0.88;0.70;;;18.60;99.90;;;;;;5117916;28;20044;-74
2023/09/10 00:12:44;;;;;;;0.53;0.50;;;18.50;99.90;;;;;;5117968;27;20521;-73
2023/09/10 00:15:09;;;;;;;0.77;0.60;;;18.50;99.90;;;;;;5117901;28;20068;-74
2023/09/10 00:17:35;;;;;;;0.47;0.47;;;18.50;99.90;;;;;;5117894;28;20043;-75
2023/09/10 00:20:01;;;;;;;0.67;0.67;;;18.50;99.90;;;;;;5118020;28;20082;-74
2023/09/10 00:22:27;;;;;;;0.63;0.50;;;18.50;99.90;;;;;;5117784;28;20463;-74
2023/09/10 00:24:52;;;;;;;0.80;0.40;;;18.40;99.90;;;;;;5117651;28;20050;-75
2023/09/10 00:27:18;;;;;;;0.40;0.40;;;18.40;99.90;;;;;;5117848;28;20086;-74
2023/09/10 00:29:44;;;;;;;0.50;0.50;;;18.40;99.90;;;;;;5117564;28;20393;-74
2023/09/10 00:32:09;;;;;;;1.20;1.10;;;18.30;99.90;;;;;;5117881;28;20498;-74
2023/09/10 00:34:35;;;;;;;0.43;0.43;;;18.30;99.90;;;;;;5117842;28;20118;-74
2023/09/10 00:37:01;;;;;;;0.30;0.30;;;18.30;99.90;;;;;;5116578;28;20092;-75
2023/09/10 00:39:26;;;;;;;1.10;0.70;;;18.20;99.90;;;;;;5117541;28;20044;-75
2023/09/10 00:41:55;;;;;;;0.50;0.50;;;18.20;99.90;;;;;;5117328;28;20043;-74
2023/09/10 00:44:23;;;;;;;0.60;0.60;;;18.20;99.90;;;;;;5117955;28;20040;-74
2023/09/10 00:46:50;;;;;;;0.60;0.60;;;18.10;99.90;;;;;;5117326;28;20039;-74
2023/09/10 00:49:16;;;;;;;0.52;0.52;;;18.10;99.90;;;;;;5117263;28;20078;-74
2023/09/10 00:51:43;;;;;;;0.50;0.35;;;18.10;99.90;;;;;;5117289;28;20429;-73
2023/09/10 00:54:09;;;;;;;0.35;0.35;;;18.10;99.90;;;;;;5117340;28;20032;-75
2023/09/10 00:56:35;;;;;;;0.80;0.60;;;18.10;99.90;;;;;;5117039;28;20036;-75
2023/09/10 00:59:01;;;;;;;0.95;0.65;;;18.00;99.90;;;;;;5117164;28;20444;-75
2023/09/10 01:01:28;;;;;;;0.38;0.30;;;18.00;99.90;;;;;;5115757;28;20100;-74
2023/09/10 01:03:53;;;;;;;0.40;0.40;;;18.00;99.90;;;;;;5116955;28;20117;-74
2023/09/10 01:06:21;;;;;;;0.50;0.50;;;18.00;99.90;;;;;;5116972;28;20044;-74
2023/09/10 01:08:48;;;;;;;0.57;0.57;;;17.90;99.90;;;;;;5116611;28;20126;-74
2023/09/10 01:11:32;;;;;;;0.30;0.30;;;17.80;99.90;;;;;;5116685;28;20039;-74
2023/09/10 01:14:24;;;;;;;0.55;0.55;;;17.80;99.90;;;;;;5117214;28;20393;-74
2023/09/10 01:17:05;;;;;;;2.28;0.77;;;17.80;99.90;;;;;;5116572;28;20047;-74
2023/09/10 01:20:12;;;;;;;0.63;0.63;;;17.90;99.90;;;;;;5116718;28;20043;-74
2023/09/10 01:23:03;;;;;;;0.60;0.50;;;17.80;99.90;;;;;;5033715;28;20041;-74
2023/09/10 01:25:33;;;;;;;1.30;0.93;;;17.80;99.90;;;;;;5033782;28;20127;-74
2023/09/10 01:28:04;;;;;;;0.63;0.63;;;17.80;99.90;;;;;;5090414;28;20086;-74
2023/09/10 01:30:33;;;;;;;0.40;0.40;;;17.70;99.90;;;;;;5116449;28;20046;-74
2023/09/10 01:33:08;;;;;;;0.60;0.60;;;17.70;99.90;;;;;;5116437;28;20036;-74
2023/09/10 01:35:45;;;;;;;0.50;0.50;;;17.70;99.90;;;;;;5116329;28;20122;-74
2023/09/10 01:38:26;;;;;;;0.50;0.50;;;17.70;99.90;;;;;;5116383;28;20085;-74
2023/09/10 01:41:13;;;;;;;0.50;0.50;;;17.70;99.90;;;;;;5116266;28;20478;-74
2023/09/10 01:43:40;;;;;;;0.60;0.60;;;17.70;99.90;;;;;;5116341;28;20047;-74
2023/09/10 01:46:07;;;;;;;0.55;0.52;;;17.70;99.90;;;;;;5116241;28;20417;-74
2023/09/10 01:48:32;;;;;;;0.70;0.70;;;17.70;99.90;;;;;;5116484;28;20138;-74
2023/09/10 01:50:58;;;;;;;1.20;0.80;;;17.70;99.90;;;;;;5115724;28;20464;-74
2023/09/10 01:53:24;;;;;;;0.73;0.63;;;17.60;99.90;;;;;;5116002;28;20035;-74
2023/09/10 01:55:49;;;;;;;0.97;0.83;;;17.70;99.90;;;;;;5115963;28;20079;-74
2023/09/10 01:58:15;;;;;;;0.70;0.63;;;17.60;99.90;;;;;;5116091;28;20082;-74
2023/09/10 02:00:42;;;;;;;0.93;0.83;;;17.60;99.90;;;;;;5114571;28;20082;-74
2023/09/10 02:03:07;;;;;;;0.82;0.75;;;17.60;99.90;;;;;;5115836;28;20443;-74
2023/09/10 02:05:34;;;;;;;0.40;0.40;;;17.50;99.90;;;;;;5115432;28;20078;-74
2023/09/10 02:07:59;;;;;;;1.35;1.05;;;17.40;99.90;;;;;;5115872;28;20044;-74
2023/09/10 02:10:25;;;;;;;0.60;0.60;;;17.40;99.90;;;;;;5115969;28;20088;-74
2023/09/10 02:12:51;;;;;;;0.50;0.50;;;17.40;99.90;;;;;;5115807;28;20039;-73
2023/09/10 02:15:17;;;;;;;0.77;0.70;;;17.40;99.90;;;;;;5115187;28;20412;-75
2023/09/10 02:17:43;;;;;;;0.50;0.50;;;17.40;99.90;;;;;;5115498;28;20065;-73
2023/09/10 02:20:12;;;;;;;0.50;0.50;;;17.40;99.90;;;;;;5115404;28;20028;-74
2023/09/10 02:22:38;;;;;;;0.63;0.50;;;17.40;99.90;;;;;;5115416;28;20081;-75
2023/09/10 02:25:04;;;;;;;;;;;17.30;99.90;;;;;;5116089;28;20047;-73
2023/09/10 02:27:31;;;;;;;0.65;0.60;;;17.30;99.90;;;;;;5115619;28;19919;-75
2023/09/10 02:29:57;;;;;;;;;;;17.30;99.90;;;;;;5115537;28;20043;-75
2023/09/10 02:32:24;;;;;;;1.27;0.85;;;17.30;99.90;;;;;;5115213;28;19923;-75
2023/09/10 02:34:53;;;;;;;1.30;0.63;;;17.30;99.90;;;;;;5115225;28;20042;-74
2023/09/10 02:37:18;;;;;;;1.00;0.80;;;17.30;99.90;;;;;;5115732;28;20060;-75
2023/09/10 02:39:44;;;;;;;0.77;0.77;;;17.30;99.90;;;;;;5115108;28;20126;-74
2023/09/10 02:42:10;;;;;;;1.00;0.90;;;17.20;99.90;;;;;;5114112;28;20062;-74
2023/09/10 02:44:35;;;;;;;1.00;0.80;;;17.20;99.90;;;;;;5114991;28;20039;-74
2023/09/10 02:47:01;;;;;;;0.63;0.47;;;17.20;99.90;;;;;;5114714;28;20043;-74
2023/09/10 02:49:27;;;;;;;0.75;0.70;;;17.20;99.90;;;;;;5114831;28;20039;-74
2023/09/10 02:51:54;;;;;;;0.77;0.53;;;17.20;99.90;;;;;;5115666;28;20443;-74
2023/09/10 02:54:19;;;;;;;1.45;0.90;;;17.10;99.90;;;;;;5114935;28;20043;-75
2023/09/10 02:56:45;;;;;;;0.67;0.67;;;17.10;99.90;;;;;;5113640;28;20351;-74
2023/09/10 02:59:31;;;;;;;0.67;0.63;;;17.10;99.90;;;;;;5114948;28;20046;-75
2023/09/10 03:01:56;;;;;;;0.50;0.50;;;17.10;99.90;;;;;;5114169;27;20061;-76
2023/09/10 03:04:22;;;;;;;0.70;0.70;;;17.10;99.90;;;;;;5115318;28;20032;-73
2023/09/10 03:06:50;;;;;;;0.30;0.30;;;17.10;99.90;;;;;;5114727;28;20032;-73
2023/09/10 03:09:16;;;;;;;0.55;0.55;;;17.10;99.90;;;;;;5114750;28;20051;-74
2023/09/10 03:11:43;;;;;;;1.20;0.65;;;17.00;99.90;;;;;;5114752;28;20467;-74
2023/09/10 03:14:09;;;;;;;;;;;17.00;99.90;;;;;;5115028;28;20079;-75
2023/09/10 03:16:35;;;;;;;0.75;0.75;;;17.00;99.90;;;;;;5114461;28;19969;-74
2023/09/10 03:19:01;;;;;;;;;;;16.90;99.90;;;;;;5115270;28;20046;-75
2023/09/10 03:21:27;;;;;;;0.50;0.50;;;16.90;99.90;;;;;;5114423;28;20010;-75
2023/09/10 03:23:54;;;;;;;0.60;0.60;;;16.90;99.90;;;;;;5114476;28;20035;-74
2023/09/10 03:26:20;;;;;;;1.45;0.80;;;16.90;99.90;;;;;;5114195;28;20035;-75
2023/09/10 03:28:46;;;;;;;4.33;0.50;;;16.90;99.90;;;;;;5113821;28;20038;-75
2023/09/10 03:31:11;;;;;;;1.27;1.07;;;16.80;99.90;;;;;;5113878;28;20040;-75
2023/09/10 03:33:37;;;;;;;0.43;0.43;;;16.80;99.90;;;;;;5114677;28;20092;-75
2023/09/10 03:36:03;;;;;;;0.40;0.40;;;16.70;99.90;;;;;;5114278;28;20531;-75
2023/09/10 03:38:29;;;;;;;1.77;0.60;;;16.80;99.90;;;;;;5114499;28;20031;-75
2023/09/10 03:40:55;;;;;;;0.97;0.67;;;16.80;99.90;;;;;;5114140;28;20300;-75
2023/09/10 03:43:21;;;;;;;0.60;0.60;;;16.70;99.90;;;;;;5114458;28;20048;-75
2023/09/10 03:45:46;;;;;;;0.60;0.60;;;16.70;99.90;;;;;;5113781;28;20071;-75
2023/09/10 03:48:13;;;;;;;0.83;0.73;;;16.60;99.90;;;;;;5114093;28;20032;-75
2023/09/10 03:50:39;;;;;;;0.95;0.80;;;16.60;99.90;;;;;;5113745;28;20483;-75
2023/09/10 03:53:04;;;;;;;0.60;0.60;;;16.60;99.90;;;;;;5114077;28;20086;-75
2023/09/10 03:55:30;;;;;;;0.60;0.60;;;16.60;99.90;;;;;;5114003;28;20315;-75
2023/09/10 03:57:56;;;;;;;0.30;0.30;;;16.60;99.90;;;;;;5113976;28;20097;-75
2023/09/10 04:00:22;;;;;;;0.80;0.80;;;16.60;99.90;;;;;;5113970;28;20077;-74
2023/09/10 04:02:48;;;;;;;0.60;0.60;;;16.60;99.90;;;;;;5114143;28;20343;-75
2023/09/10 04:05:14;;;;;;;0.90;0.90;;;16.60;99.90;;;;;;5114500;28;20039;-75
2023/09/10 04:07:39;;;;;;;0.40;0.40;;;16.60;99.90;;;;;;5113568;28;20048;-75
2023/09/10 04:10:07;;;;;;;1.70;0.77;;;16.60;99.90;;;;;;5114073;28;20044;-75
2023/09/10 04:12:32;;;;;;;2.03;0.98;;;16.60;99.90;;;;;;5112469;28;20138;-75
2023/09/10 04:14:58;;;;;;;0.40;0.40;;;16.60;99.90;;;;;;5113801;28;20475;-75
2023/09/10 04:17:28;;;;;;;0.57;0.57;;;16.60;99.90;;;;;;5113747;28;20475;-75
2023/09/10 04:19:54;;;;;;;0.60;0.60;;;16.50;99.90;;;;;;5113811;28;20050;-75
2023/09/10 04:22:20;;;;;;;2.38;1.20;;;16.50;99.90;;;;;;5113761;28;20036;-75
2023/09/10 04:24:45;;;;;;;0.50;0.50;;;16.50;99.90;;;;;;5113727;28;20039;-75
2023/09/10 04:27:11;;;;;;;1.43;0.97;;;16.50;99.90;;;;;;5113411;28;20113;-74
2023/09/10 04:29:36;;;;;;;0.50;0.50;;;16.50;99.90;;;;;;5112351;28;20043;-75
2023/09/10 04:32:02;;;;;;;0.60;0.60;;;16.50;99.90;;;;;;5113578;28;20427;-75
2023/09/10 04:34:28;;;;;;;0.73;0.50;;;16.50;99.90;;;;;;5113638;28;20051;-74
2023/09/10 04:36:53;;;;;;;0.50;0.50;;;16.50;99.90;;;;;;5113620;28;20064;-74
2023/09/10 04:39:19;;;;;;;0.63;0.63;;;16.40;99.90;;;;;;5115984;28;20083;-76
2023/09/10 04:41:45;;;;;;;0.53;0.53;;;16.50;99.90;;;;;;5117447;28;20435;-74
2023/09/10 04:44:10;;;;;;;1.37;1.00;;;16.40;99.90;;;;;;5117351;28;20043;-76
2023/09/10 04:46:36;;;;;;;0.97;0.70;;;16.40;99.90;;;;;;5117367;28;20184;-75
2023/09/10 04:49:02;;;;;;;0.97;0.70;;;16.40;99.90;;;;;;5117348;28;20062;-76
2023/09/10 04:51:28;;;;;;;1.07;0.80;;;16.40;99.90;;;;;;5116939;28;20050;-75
2023/09/10 04:53:54;;;;;;;0.50;0.50;;;16.40;99.90;;;;;;5117084;28;20061;-74
2023/09/10 04:56:20;;;;;;;0.50;0.50;;;16.40;99.90;;;;;;5117169;28;20040;-76
2023/09/10 04:58:46;;;;;;;0.73;0.73;;;16.40;99.90;;;;;;5116023;28;20065;-74
2023/09/10 05:01:11;;;;;;;0.43;0.43;;;16.40;99.90;;;;;;5116679;28;20549;-75
2023/09/10 05:03:37;;;;;;;1.10;1.00;;;16.40;99.90;;;;;;5117747;28;20035;-75
2023/09/10 05:06:05;;;;;;;0.80;0.70;;;16.50;99.90;;;;;;5117029;28;20040;-75
2023/09/10 05:08:31;;;;;;;0.77;0.77;;;16.30;99.90;;;;;;5116946;28;20055;-75
2023/09/10 05:10:57;;;;;;;0.77;0.77;;;16.30;99.90;;;;;;5116882;28;20383;-72
2023/09/10 05:13:22;;;;;;;0.90;0.90;;;16.30;99.90;;;;;;5116824;28;20435;-72
2023/09/10 05:15:48;;;;;;;0.87;0.70;;;16.40;99.90;;;;;;5116716;28;20032;-72
2023/09/10 05:18:15;;;;;;;0.80;0.80;;;16.40;99.90;;;;;;5116680;28;20040;-73
2023/09/10 05:20:40;;;;;;;1.65;0.80;;;16.40;99.90;;;;;;5116654;28;20128;-73
2023/09/10 05:23:06;;;;;;;2.47;1.17;;;16.40;99.90;;;;;;5116648;28;20039;-72
2023/09/10 05:25:36;;;;;;;0.70;0.70;;;16.40;99.90;;;;;;5116450;28;20501;-72
2023/09/10 05:28:02;;;;;;;1.15;0.80;;;16.40;99.90;;;;;;5116454;28;20080;-71
2023/09/10 05:30:27;;;;;;;0.52;0.50;;;16.40;99.90;;;;;;5116034;28;20489;-75
2023/09/10 05:32:53;;;;;;;0.57;0.57;;;16.50;99.90;;;;;;5116371;28;20040;-74
2023/09/10 05:35:19;;;;;;;0.87;0.70;;;16.50;99.90;;;;;;5116395;28;20042;-75
2023/09/10 05:37:45;;;;;;;0.60;0.60;;;16.60;99.90;;;;;;5116319;28;20039;-70
2023/09/10 05:40:11;;;;;;;0.55;0.55;;;16.60;99.90;;;;;;5116196;28;20097;-71
2023/09/10 05:42:36;;;;;;;0.77;0.70;;;16.60;99.90;;;;;;5116146;28;20039;-71
2023/09/10 05:45:02;;;;;;;1.57;0.80;;;16.70;99.90;;;;;;5115974;28;20054;-71
2023/09/10 05:47:28;;;;;;;0.60;0.60;;;16.70;99.90;;;;;;5115775;28;20043;-71
2023/09/10 05:49:53;;;;;;;0.87;0.80;;;16.80;99.90;;;;;;5115395;28;20277;-74
2023/09/10 05:52:19;;;;;;;2.77;0.90;;;16.80;99.90;;;;;;5115841;28;20047;-71
2023/09/10 05:54:45;;;;;;;0.90;0.70;;;16.90;99.90;;;;;;5115844;28;20123;-70
2023/09/10 05:57:11;;;;;;;0.50;0.50;;;16.90;99.90;;;;;;5115770;28;20055;-70
2023/09/10 05:59:36;;;;;;;0.37;0.37;;;17.00;99.90;;;;;;5115791;28;20085;-71
2023/09/10 06:02:02;;;;;;;1.03;0.70;;;17.00;99.90;;;;;;5115775;28;20036;-71
2023/09/10 06:04:27;;;;;;;0.50;0.50;;;17.00;99.90;;;;;;5115677;28;20367;-71
2023/09/10 06:06:53;;;;;;;0.60;0.60;;;17.10;99.90;;;;;;5115722;28;20053;-71
2023/09/10 06:09:19;;;;;;;0.77;0.77;;;17.10;99.90;;;;;;5115314;28;20048;-71
2023/09/10 06:11:45;;;;;;;1.53;1.43;;;17.10;99.90;;;;;;5115540;28;20035;-71
2023/09/10 06:14:10;;;;;;;0.60;0.60;;;17.20;99.90;;;;;;5115556;28;20293;-72
2023/09/10 06:16:36;;;;;;;0.77;0.77;;;17.20;99.90;;;;;;5116083;28;20099;-70
2023/09/10 06:19:02;;;;;;;0.70;0.70;;;17.30;99.90;;;;;;5115563;28;20039;-70
2023/09/10 06:21:28;;;;;;;1.40;1.13;;;17.30;99.90;;;;;;5115729;27;20035;-71
2023/09/10 06:23:54;;;;;;;0.50;0.50;;;17.40;99.90;;;;;;5115630;28;20119;-71
2023/09/10 06:26:20;;;;;;;0.63;0.63;;;17.50;99.90;;;;;;5115397;28;20065;-73
2023/09/10 06:28:46;;;;;;;0.68;0.63;;;17.50;99.90;;;;;;5115212;28;20032;-72
2023/09/10 06:31:11;;;;;;;1.03;0.87;;;17.50;99.90;;;;;;5115357;28;20043;-73
2023/09/10 06:33:37;;;;;;;1.00;0.70;;;17.60;99.90;;;;;;5115222;28;20459;-73
2023/09/10 06:36:03;;;;;;;0.63;0.60;;;17.70;99.90;;;;;;5115130;28;20071;-73
2023/09/10 06:38:29;;;;;;;0.90;0.73;;;17.70;99.90;;;;;;5114947;28;20057;-73
2023/09/10 06:40:54;;;;;;;0.63;0.63;;;17.80;99.90;;;;;;5114779;28;20090;-74
2023/09/10 06:43:20;;;;;;;0.80;0.70;;;17.90;99.90;;;;;;5114861;28;20300;-73
2023/09/10 06:45:46;;;;;;;0.63;0.63;;;18.00;99.90;;;;;;5114937;28;20043;-71
2023/09/10 06:48:11;;;;;;;1.57;1.30;;;18.10;99.90;;;;;;5114944;28;20043;-76
2023/09/10 06:50:37;;;;;;;1.73;1.07;;;18.30;99.90;;;;;;5115111;28;20039;-73
2023/09/10 06:53:03;;;;;;;1.60;1.40;;;18.40;99.90;;;;;;5115105;28;20126;-71
2023/09/10 06:55:28;;;;;;;1.50;1.30;;;18.50;99.90;;;;;;5113312;28;20044;-73
2023/09/10 06:57:55;;;;;;;1.20;1.10;;;18.60;99.90;;;;;;5114788;28;20496;-75
2023/09/10 07:00:21;;;;;;;1.52;1.35;;;18.80;99.90;;;;;;5114373;28;20447;-77
2023/09/10 07:02:46;;;;;;;1.33;1.23;;;18.90;99.90;;;;;;5113323;28;20127;-74
2023/09/10 07:05:13;;;;;;;1.43;1.10;;;19.00;99.90;;;;;;5114679;28;20305;-72
2023/09/10 07:07:38;;;;;;;0.98;0.80;;;19.20;99.90;;;;;;5114365;28;20047;-71
2023/09/10 07:10:05;;;;;;;0.70;0.70;;;19.30;99.90;;;;;;5114664;28;20039;-73
2023/09/10 07:12:31;;;;;;;1.45;0.98;;;19.40;99.90;;;;;;5114466;28;20062;-71
2023/09/10 07:14:57;;;;;;;1.45;1.13;;;19.50;99.90;;;;;;5114480;28;20039;-72
2023/09/10 07:17:23;;;;;;;1.47;1.20;;;19.70;99.90;;;;;;5114280;28;20080;-71
2023/09/10 07:19:48;;;;;;;1.33;1.10;;;19.80;99.90;;;;;;5114295;28;20348;-74
2023/09/10 07:22:14;;;;;;;1.03;0.93;;;19.90;99.90;;;;;;5114816;28;20448;-74
2023/09/10 07:24:40;;;;;;;2.07;1.07;;;20.00;99.90;;;;;;5114037;28;20044;-73
2023/09/10 07:27:06;;;;;;;1.40;1.30;;;20.10;99.90;;;;;;5114295;28;20065;-74
2023/09/10 07:29:31;;;;;;;0.80;0.80;;;20.20;99.90;;;;;;5114180;28;20043;-79
2023/09/10 07:31:57;;;;;;;1.07;0.97;;;20.30;99.90;;;;;;5114173;28;20058;-72
2023/09/10 07:34:23;;;;;;;1.60;0.87;;;20.40;99.90;;;;;;5112395;28;20089;-72
2023/09/10 07:36:49;;;;;;;1.30;0.93;;;20.50;99.90;;;;;;5112815;28;20043;-73
2023/09/10 07:39:17;;;;;;;0.77;0.77;;;20.60;99.90;;;;;;5113375;28;20084;-71
2023/09/10 07:41:43;;;;;;;0.63;0.60;;;20.70;99.90;;;;;;5113009;28;20421;-72
2023/09/10 07:44:08;;;;;;;2.00;1.67;;;20.70;99.90;;;;;;5112942;28;20110;-72
2023/09/10 07:46:34;;;;;;;1.43;1.10;;;20.90;99.90;;;;;;5113140;28;20039;-72
2023/09/10 07:49:00;;;;;;;1.37;1.10;;;21.00;99.90;;;;;;5113629;28;20455;-73
2023/09/10 07:51:25;;;;;;;1.40;1.07;;;21.00;99.90;;;;;;5113797;28;20035;-72
2023/09/10 07:53:51;;;;;;;0.83;0.80;;;21.10;99.90;;;;;;5113954;28;20047;-72
2023/09/10 07:56:17;;;;;;;0.70;0.70;;;21.20;99.90;;;;;;5113804;28;20164;-72
2023/09/10 07:58:42;;;;;;;7.30;1.87;;;21.30;99.90;;;;;;5113768;28;20040;-72
2023/09/10 08:01:08;;;;;;;1.37;1.03;;;21.40;99.90;;;;;;5113820;28;20370;-72
2023/09/10 08:03:36;;;;;;;1.57;1.27;;;21.50;99.90;;;;;;5114186;28;20078;-72
2023/09/10 08:06:02;;;;;;;1.10;1.00;;;21.60;99.90;;;;;;5114058;28;20043;-73
2023/09/10 08:08:27;;;;;;;1.60;1.00;;;21.70;99.90;;;;;;5113900;28;20130;-73
2023/09/10 08:10:53;;;;;;;0.93;0.60;;;21.80;99.90;;;;;;5113645;28;20035;-72
2023/09/10 08:13:20;;;;;;;0.53;0.50;;;21.90;99.90;;;;;;5114447;28;20035;-72
2023/09/10 08:15:45;;;;;;;1.08;0.85;;;22.00;99.90;;;;;;5117854;28;20044;-72
2023/09/10 08:18:11;;;;;;;1.10;0.80;;;22.10;99.90;;;;;;5117811;28;20386;-72
2023/09/10 08:20:39;;;;;;;1.50;1.05;;;22.30;99.90;;;;;;5117586;28;20036;-72
2023/09/10 08:23:05;;;;;;;1.23;0.73;;;22.30;99.90;;;;;;5117591;28;20047;-73
2023/09/10 08:25:31;;;;;;;0.93;0.60;;;22.40;99.90;;;;;;5117810;28;20043;-72
2023/09/10 08:27:56;;;;;;;0.80;0.80;;;22.50;99.90;;;;;;5117453;28;20046;-73
2023/09/10 08:30:22;;;;;;;0.53;0.53;;;22.60;99.90;;;;;;5116345;28;20358;-72
2023/09/10 08:32:49;;;;;;;0.50;0.50;;;22.70;99.90;;;;;;5117954;28;20040;-72
2023/09/10 08:35:19;;;;;;;0.82;0.55;;;22.70;99.90;;;;;;5117535;28;20085;-73
2023/09/10 08:37:45;;;;;;;0.75;0.75;;;22.90;99.90;;;;;;5117647;28;20352;-72
2023/09/10 08:40:11;;;;;;;0.50;0.50;;;23.00;99.90;;;;;;5117484;28;20047;-72
2023/09/10 08:42:46;;;;;;;0.60;0.60;;;23.00;99.90;;;;;;5117349;27;20377;-73
2023/09/10 08:45:13;;;;;;;1.63;0.98;;;23.10;99.90;;;;;;5117947;28;20417;-74
2023/09/10 08:47:41;;;;;;;0.60;0.60;;;23.10;99.90;;;;;;5117335;28;20039;-73
2023/09/10 08:50:11;;;;;;;0.70;0.70;;;23.20;99.90;;;;;;5117158;28;20036;-73
2023/09/10 08:52:39;;;;;;;0.95;0.85;;;23.30;99.90;;;;;;5117169;28;20463;-73
2023/09/10 08:55:07;;;;;;;1.67;0.55;;;23.40;99.90;;;;;;5116910;28;20075;-73
2023/09/10 08:57:37;;;;;;;1.27;1.00;;;23.40;99.90;;;;;;5116860;28;20040;-74
2023/09/10 09:00:10;;;;;;;0.80;0.80;;;23.50;99.90;;;;;;5117047;28;20130;-74
2023/09/10 09:02:37;;;;;;;1.10;0.93;;;23.60;99.90;;;;;;5117279;28;20040;-74
2023/09/10 09:05:04;;;;;;;1.35;0.68;;;23.70;99.90;;;;;;5117029;28;20086;-74
2023/09/10 09:07:31;;;;;;;;;;;23.70;99.90;;;;;;5117010;28;20119;-74
2023/09/10 09:10:00;;;;;;;0.40;0.40;;;23.80;99.90;;;;;;5116904;28;19941;-73
2023/09/10 09:12:27;;;;;;;0.52;0.52;;;23.90;99.90;;;;;;5117235;28;20451;-74
2023/09/10 09:14:54;;;;;;;1.90;0.73;;;23.90;99.90;;;;;;5116483;28;20459;-73
2023/09/10 09:17:21;;;;;;;0.70;0.70;;;24.10;99.90;;;;;;5116744;28;20546;-73
2023/09/10 09:19:49;;;;;;;1.02;0.73;;;24.10;99.90;;;;;;5116712;28;20039;-74
2023/09/10 09:22:19;;;;;;;0.68;0.45;;;24.20;99.90;;;;;;5116552;28;20491;-74
2023/09/10 09:24:47;;;;;;;0.95;0.65;;;24.30;99.90;;;;;;5115802;28;20382;-73
2023/09/10 09:27:14;;;;;;;0.85;0.75;;;24.40;99.90;;;;;;5116869;28;20356;-74
2023/09/10 09:29:40;;;;;;;0.75;0.40;;;24.40;99.90;;;;;;5116182;28;20046;-74
2023/09/10 09:32:07;;;;;;;0.40;0.40;;;24.50;99.90;;;;;;5116138;28;20145;-77
2023/09/10 09:34:33;;;;;;;0.35;0.32;;;24.60;99.90;;;;;;5116473;28;20044;-80
2023/09/10 09:36:59;;;;;;;0.45;0.43;;;24.70;99.90;;;;;;5116313;28;20343;-74
2023/09/10 09:39:25;;;;;;;0.40;0.40;;;24.70;99.90;;;;;;5116676;28;20085;-74
2023/09/10 09:41:54;;;;;;;1.20;0.60;;;24.80;99.90;;;;;;5116331;28;20483;-70
2023/09/10 09:44:20;;;;;;;0.40;0.40;;;24.80;99.90;;;;;;5116157;28;20043;-71
2023/09/10 09:46:47;;;;;;;1.03;0.83;;;24.90;99.90;;;;;;5116073;28;20043;-71
2023/09/10 09:49:13;;;;;;;0.57;0.50;;;25.00;99.90;;;;;;5116053;28;20036;-74
2023/09/10 09:51:40;;;;;;;0.60;0.60;;;25.10;99.90;;;;;;5115859;28;20370;-73
2023/09/10 09:54:09;;;;;;;0.68;0.60;;;25.10;99.90;;;;;;5116348;28;20079;-72
2023/09/10 09:56:37;;;;;;;0.82;0.60;;;25.20;99.90;;;;;;5115806;28;20035;-75
2023/09/10 09:59:02;;;;;;;0.32;0.32;;;25.20;99.90;;;;;;5115635;28;20054;-74
2023/09/10 10:01:28;;;;;;;0.57;0.57;;;25.30;99.90;;;;;;5115979;28;20455;-72
2023/09/10 10:03:56;;;;;;;0.70;0.63;;;25.40;99.90;;;;;;5115403;28;20227;-72
2023/09/10 10:06:23;;;;;;;0.90;0.50;;;25.40;99.90;;;;;;5115655;28;20461;-74
2023/09/10 10:08:50;;;;;;;1.17;0.85;;;25.60;99.90;;;;;;5115873;28;20490;-73
2023/09/10 10:11:31;;;;;;;;;;;25.60;99.90;;;;;;5116064;28;20043;-74
2023/09/10 10:14:00;;;;;;;0.80;0.65;;;25.70;99.90;;;;;;5115519;28;19923;-73
2023/09/10 10:16:30;;;;;;;0.45;0.45;;;25.80;99.90;;;;;;5115460;28;20062;-74
2023/09/10 10:18:56;;;;;;;0.88;0.82;;;25.80;99.90;;;;;;5114095;28;20082;-73
2023/09/10 10:21:23;;;;;;;0.35;0.35;;;25.90;99.90;;;;;;5115388;28;20120;-73
2023/09/10 10:23:49;;;;;;;;;;;26.00;99.90;;;;;;5114713;28;20051;-74
2023/09/10 10:26:16;;;;;;;1.98;0.70;;;26.10;99.90;;;;;;5115319;28;19916;-73
2023/09/10 10:28:44;;;;;;;0.30;0.30;;;26.00;99.90;;;;;;5115405;28;20043;-72
2023/09/10 10:31:28;;;;;;;0.30;0.30;;;26.10;99.90;;;;;;5115314;28;20127;-76
2023/09/10 10:34:14;;;;;;;0.30;0.30;;;26.20;99.90;;;;;;5115630;28;20047;-73
2023/09/10 10:37:05;;;;;;;0.63;0.60;;;26.30;99.90;;;;;;5114850;28;20043;-73
2023/09/10 10:39:42;;;;;;;0.70;0.70;;;26.40;99.90;;;;;;5115268;28;20040;-74
2023/09/10 10:42:10;;;;;;;0.40;0.30;;;26.40;99.90;;;;;;5115199;28;20047;-74
2023/09/10 10:44:38;;;;;;;0.45;0.45;;;26.50;99.90;;;;;;5115018;28;20122;-75
2023/09/10 10:47:13;;;;;;;0.47;0.47;;;26.50;99.90;;;;;;5115384;28;20128;-74
2023/09/10 10:49:52;;;;;;;0.60;0.45;;;26.60;99.90;;;;;;5114661;28;20489;-74
2023/09/10 10:52:28;;;;;;;0.50;0.50;;;26.70;99.90;;;;;;5114804;28;20053;-74
2023/09/10 10:54:54;;;;;;;0.37;0.37;;;26.70;99.90;;;;;;5114982;28;20050;-73
2023/09/10 10:57:22;;;;;;;0.80;0.80;;;26.80;99.90;;;;;;5114795;28;20317;-73
2023/09/10 10:59:49;;;;;;;0.30;0.30;;;26.80;99.90;;;;;;5114801;28;20067;-73
2023/09/10 11:02:21;;;;;;;0.63;0.60;;;26.90;99.90;;;;;;5114873;28;20042;-74
2023/09/10 11:05:04;;;;;;;0.65;0.47;;;26.90;99.90;;;;;;5114702;28;20039;-73
2023/09/10 11:07:31;;;;;;;0.50;0.50;;;27.00;99.90;;;;;;5114364;28;20039;-74
2023/09/10 11:09:58;;;;;;;0.43;0.43;;;27.00;99.90;;;;;;5114969;28;20040;-74
2023/09/10 11:12:24;;;;;;;0.30;0.30;;;27.10;99.90;;;;;;5114370;28;20035;-72
2023/09/10 11:15:16;;;;;;;0.95;0.55;;;27.20;99.90;;;;;;5114371;28;20123;-73
2023/09/10 11:17:42;;;;;;;0.93;0.60;;;27.20;99.90;;;;;;5109893;28;20123;-73
2023/09/10 11:20:08;;;;;;;0.77;0.70;;;27.30;99.90;;;;;;5114251;28;20144;-75
2023/09/10 11:23:06;;;;;;;1.55;1.05;;;27.30;99.90;;;;;;5114173;28;20497;-74
2023/09/10 11:25:32;;;;;;;0.60;0.60;;;27.40;99.90;;;;;;5114324;28;20371;-74
2023/09/10 11:27:57;;;;;;;1.20;0.70;;;27.50;99.90;;;;;;5114383;28;20031;-75
2023/09/10 11:30:23;;;;;;;0.40;0.40;;;27.50;99.90;;;;;;5114492;28;20367;-75
2023/09/10 11:32:50;;;;;;;0.88;0.63;;;27.60;99.90;;;;;;5114157;28;20123;-74
2023/09/10 11:35:19;;;;;;;0.50;0.50;;;27.60;99.90;;;;;;5114185;28;20093;-74
2023/09/10 11:37:49;;;;;;;0.30;0.30;;;27.60;99.90;;;;;;5114231;28;20043;-74
2023/09/10 11:40:16;;;;;;;0.60;0.60;;;27.70;99.90;;;;;;5114238;28;20036;-74
2023/09/10 11:42:46;;;;;;;2.08;1.02;;;27.70;99.90;;;;;;5114064;28;20043;-74
2023/09/10 11:45:12;;;;;;;0.65;0.65;;;27.80;99.90;;;;;;5114158;28;20050;-76
2023/09/10 11:47:46;;;;;;;0.43;0.43;;;27.80;99.90;;;;;;5113637;28;20051;-75
2023/09/10 11:50:13;;;;;;;1.52;1.08;;;27.80;99.90;;;;;;5113785;28;20044;-76
2023/09/10 11:52:40;;;;;;;2.33;0.60;;;27.80;99.90;;;;;;5114074;28;20044;-73
2023/09/10 11:55:09;;;;;;;1.17;0.88;;;27.90;99.90;;;;;;5113572;28;20063;-72
2023/09/10 11:57:38;;;;;;;1.08;0.98;;;27.90;99.90;;;;;;5114070;28;20044;-74
2023/09/10 12:00:05;;;;;;;0.88;0.65;;;28.00;99.90;;;;;;5113908;28;20079;-76
2023/09/10 12:02:31;;;;;;;0.93;0.43;;;28.00;99.90;;;;;;5112699;28;20085;-75
2023/09/10 12:04:59;;;;;;;1.17;0.80;;;28.00;99.90;;;;;;5114013;28;20039;-77
2023/09/10 12:07:25;;;;;;;0.38;0.38;;;28.00;99.90;;;;;;5113571;28;20031;-76
2023/09/10 12:09:51;;;;;;;2.43;0.73;;;28.10;99.90;;;;;;5111835;28;20124;-76
2023/09/10 12:12:23;;;;;;;2.30;0.50;;;28.10;99.90;;;;;;5144859;27;20325;-76
2023/09/10 12:14:49;;;;;;;0.43;0.43;;;28.10;99.90;;;;;;5111962;28;20327;-76
2023/09/10 12:17:17;;;;;;;0.57;0.40;;;28.20;99.90;;;;;;5111770;28;20523;-76
2023/09/10 12:19:43;;;;;;;0.50;0.50;;;28.30;99.90;;;;;;5111779;28;20036;-76
2023/09/10 12:22:10;;;;;;;0.65;0.57;;;28.30;99.90;;;;;;5111939;28;20032;-77
2023/09/10 12:24:37;;;;;;;0.30;0.30;;;28.30;99.90;;;;;;5113218;28;20065;-77
2023/09/10 12:27:03;;;;;;;0.60;0.60;;;28.20;99.90;;;;;;5113469;28;20483;-76
2023/09/10 12:29:30;;;;;;;1.33;1.15;;;28.30;99.90;;;;;;5113787;28;20416;-76
2023/09/10 12:31:56;;;;;;;0.35;0.35;;;28.30;99.90;;;;;;5113694;28;20035;-76
2023/09/10 12:34:23;;;;;;;0.90;0.55;;;28.30;99.90;;;;;;5113316;28;20383;-76
2023/09/10 12:36:50;;;;;;;;;;;28.40;99.90;;;;;;5114013;28;20040;-76
2023/09/10 12:39:23;;;;;;;0.38;0.38;;;28.40;99.90;;;;;;5114079;28;19968;-76
2023/09/10 12:42:04;;;;;;;0.73;0.50;;;28.50;99.90;;;;;;5114105;28;20039;-75
2023/09/10 12:44:31;;;;;;;0.90;0.68;;;28.50;99.90;;;;;;5113761;28;20157;-76
2023/09/10 12:46:58;;;;;;;0.70;0.70;;;28.50;99.90;;;;;;5113618;28;20039;-75
2023/09/10 12:49:24;;;;;;;1.73;0.73;;;28.50;99.90;;;;;;5113496;28;20059;-76